Time;durP1;ratioP1;P1;durP2;ratioP2;P2;SDS_P1;SDS_P2;PMS_P1;PMS_P2;Temp;Humidity;BMP_temperature;BMP_pressure;BME280_temperature;BME280_humidity;BME280_pressure;Samples;Min_cycle;Max_cycle;Signal;HPM_P1;HPM_P2
2020/12/22 00:01:32;;;;;;;11.70;10.47;;;7.10;99.90;;;;;;5110915;28;20827;-83
2020/12/22 00:03:57;;;;;;;14.80;10.47;;;7.10;99.90;;;;;;5108765;28;20159;-81
2020/12/22 00:06:26;;;;;;;16.87;9.70;;;7.10;99.90;;;;;;5109198;28;20200;-81
2020/12/22 00:08:52;;;;;;;13.63;10.90;;;7.10;99.90;;;;;;5091560;28;20158;-81
2020/12/22 00:11:19;;;;;;;13.10;10.17;;;7.10;99.90;;;;;;5109624;28;20372;-82
2020/12/22 00:13:45;;;;;;;12.90;9.20;;;7.10;99.90;;;;;;5109405;28;20170;-81
2020/12/22 00:16:11;;;;;;;9.53;8.10;;;7.10;99.90;;;;;;5109581;28;20408;-81
2020/12/22 00:18:36;;;;;;;11.80;9.63;;;7.10;99.90;;;;;;5109748;28;20376;-82
2020/12/22 00:21:03;;;;;;;14.77;11.20;;;7.10;99.90;;;;;;5109357;28;20324;-82
2020/12/22 00:23:28;;;;;;;14.80;11.53;;;7.10;99.90;;;;;;5109098;28;20491;-82
2020/12/22 00:25:54;;;;;;;15.30;10.67;;;7.10;99.90;;;;;;5108660;28;20916;-81
2020/12/22 00:28:20;;;;;;;15.40;10.17;;;7.20;99.90;;;;;;5091795;28;20155;-82
2020/12/22 00:30:49;;;;;;;16.17;10.53;;;7.20;99.90;;;;;;5091696;28;20165;-82
2020/12/22 00:33:16;;;;;;;18.07;10.63;;;7.30;99.90;;;;;;5110420;28;20861;-81
2020/12/22 00:35:41;;;;;;;13.50;10.83;;;7.20;99.90;;;;;;5092600;28;20375;-83
2020/12/22 00:38:08;;;;;;;18.77;11.80;;;7.30;99.90;;;;;;5111218;28;20408;-81
2020/12/22 00:40:33;;;;;;;13.13;9.97;;;7.30;99.90;;;;;;5111063;28;20253;-83
2020/12/22 00:43:01;;;;;;;17.40;11.20;;;7.30;99.90;;;;;;5111797;28;20368;-83
2020/12/22 00:45:27;;;;;;;15.00;9.47;;;7.30;99.90;;;;;;5093957;28;20190;-82
2020/12/22 00:47:53;;;;;;;13.00;9.07;;;7.30;99.90;;;;;;5112214;28;20435;-83
2020/12/22 00:50:18;;;;;;;15.27;8.83;;;7.30;99.90;;;;;;5112898;28;20411;-83
2020/12/22 00:52:44;;;;;;;13.30;10.10;;;7.30;99.90;;;;;;5113916;28;20186;-83
2020/12/22 00:55:10;;;;;;;14.93;10.53;;;7.30;99.90;;;;;;5113614;28;20169;-83
2020/12/22 00:57:36;;;;;;;17.23;11.30;;;7.20;99.90;;;;;;5078487;28;20595;-83
2020/12/22 01:00:04;;;;;;;15.60;10.20;;;7.20;99.90;;;;;;5110818;28;20391;-82
2020/12/22 01:02:30;;;;;;;16.50;11.77;;;7.20;99.90;;;;;;5111613;28;20163;-83
2020/12/22 01:04:56;;;;;;;13.90;10.83;;;7.20;99.90;;;;;;5111415;28;20702;-83
2020/12/22 01:07:22;;;;;;;14.23;11.50;;;7.20;99.90;;;;;;5112210;28;20202;-83
2020/12/22 01:09:48;;;;;;;16.30;10.90;;;7.20;99.90;;;;;;5112192;28;20377;-83
2020/12/22 01:12:13;;;;;;;18.23;12.37;;;7.30;99.90;;;;;;5077757;28;20155;-83
2020/12/22 01:14:39;;;;;;;15.77;11.80;;;7.30;99.90;;;;;;5111476;28;20155;-82
2020/12/22 01:17:05;;;;;;;22.60;10.40;;;7.30;99.90;;;;;;5110655;28;20159;-83
2020/12/22 01:19:31;;;;;;;13.27;10.10;;;7.30;99.90;;;;;;5112579;28;20214;-83
2020/12/22 01:21:57;;;;;;;14.87;10.70;;;7.30;99.90;;;;;;5112627;28;20515;-83
2020/12/22 01:24:23;;;;;;;12.70;10.70;;;7.40;99.90;;;;;;5112817;28;20167;-83
2020/12/22 01:26:50;;;;;;;11.93;10.47;;;7.40;99.90;;;;;;5112834;28;20236;-83
2020/12/22 01:29:15;;;;;;;15.10;9.50;;;7.40;99.90;;;;;;5112459;28;20419;-83
2020/12/22 01:31:41;;;;;;;11.53;6.97;;;7.40;99.90;;;;;;5113096;28;20408;-83
2020/12/22 01:34:07;;;;;;;13.90;10.70;;;7.50;99.90;;;;;;5096557;28;20211;-83
2020/12/22 01:36:33;;;;;;;18.90;12.60;;;7.40;99.90;;;;;;5118991;28;20194;-80
2020/12/22 01:38:59;;;;;;;14.93;10.50;;;7.50;99.90;;;;;;5118845;28;20177;-81
2020/12/22 01:41:34;;;;;;;16.97;10.40;;;7.50;99.90;;;;;;5118807;28;20183;-81
2020/12/22 01:44:07;;;;;;;13.73;10.10;;;7.50;99.90;;;;;;5118800;28;20162;-82
2020/12/22 01:46:38;;;;;;;8.00;7.17;;;7.40;99.90;;;;;;5118374;28;20445;-81
2020/12/22 01:49:11;;;;;;;11.97;10.67;;;7.50;99.90;;;;;;5118774;28;20404;-82
2020/12/22 01:51:37;;;;;;;13.17;10.43;;;7.50;99.90;;;;;;5118777;28;20456;-82
2020/12/22 01:54:03;;;;;;;18.43;12.07;;;7.50;99.90;;;;;;5118689;28;20391;-81
2020/12/22 01:56:31;;;;;;;13.67;10.90;;;7.50;99.90;;;;;;5118697;28;20262;-82
2020/12/22 01:58:57;;;;;;;15.10;10.17;;;7.60;99.90;;;;;;5118632;28;20166;-82
2020/12/22 02:01:23;;;;;;;15.83;10.80;;;7.50;99.90;;;;;;5118468;28;20389;-82
2020/12/22 02:03:48;;;;;;;13.77;11.40;;;7.60;99.90;;;;;;5112438;28;20818;-82
2020/12/22 02:06:14;;;;;;;15.67;9.87;;;7.60;99.90;;;;;;5112471;28;20190;-82
2020/12/22 02:08:40;;;;;;;11.97;10.17;;;7.70;99.90;;;;;;5112535;28;20162;-82
2020/12/22 02:11:06;;;;;;;16.00;11.17;;;7.60;99.90;;;;;;5112732;28;20178;-82
2020/12/22 02:13:31;;;;;;;13.30;9.27;;;7.60;99.90;;;;;;5113851;28;20204;-82
2020/12/22 02:15:57;;;;;;;14.50;9.70;;;7.60;99.90;;;;;;5114830;28;20615;-83
2020/12/22 02:18:24;;;;;;;17.17;11.07;;;7.60;99.90;;;;;;5116842;28;20165;-82
2020/12/22 02:20:51;;;;;;;14.43;10.80;;;7.70;99.90;;;;;;5118123;28;20246;-82
2020/12/22 02:23:17;;;;;;;11.63;9.57;;;7.70;99.90;;;;;;5117109;28;20401;-82
2020/12/22 02:25:45;;;;;;;13.97;10.10;;;7.70;99.90;;;;;;5112533;28;20473;-83
2020/12/22 02:28:11;;;;;;;16.23;10.43;;;7.70;99.90;;;;;;5111992;28;20159;-83
2020/12/22 02:30:38;;;;;;;16.83;10.33;;;7.70;99.90;;;;;;5111618;28;20359;-82
2020/12/22 02:33:04;;;;;;;11.70;9.70;;;7.70;99.90;;;;;;5093337;28;20363;-84
2020/12/22 02:35:30;;;;;;;12.63;10.70;;;7.70;99.90;;;;;;5111253;28;20392;-83
2020/12/22 02:37:56;;;;;;;16.07;10.20;;;7.80;99.90;;;;;;5111620;28;20423;-83
2020/12/22 02:40:22;;;;;;;15.83;11.13;;;7.80;99.90;;;;;;5113585;28;20392;-83
2020/12/22 02:42:48;;;;;;;14.47;9.80;;;7.80;99.90;;;;;;5115440;28;20233;-83
2020/12/22 02:45:14;;;;;;;14.57;9.50;;;7.80;99.90;;;;;;5114856;28;20226;-83
2020/12/22 02:47:39;;;;;;;10.80;9.20;;;7.80;99.90;;;;;;5114986;28;20218;-83
2020/12/22 02:50:05;;;;;;;11.63;9.27;;;7.80;99.90;;;;;;5114434;28;20188;-83
2020/12/22 02:52:31;;;;;;;13.03;10.00;;;7.90;99.90;;;;;;5113423;28;20173;-82
2020/12/22 02:54:57;;;;;;;13.17;9.67;;;7.90;99.90;;;;;;5112353;28;20467;-82
2020/12/22 02:57:22;;;;;;;10.60;8.63;;;7.90;99.90;;;;;;5112581;28;20170;-83
2020/12/22 02:59:48;;;;;;;13.70;10.60;;;7.90;99.90;;;;;;5112149;28;20163;-82
2020/12/22 03:02:14;;;;;;;12.77;9.93;;;8.00;99.90;;;;;;5112327;28;20170;-82
2020/12/22 03:04:40;;;;;;;12.60;9.87;;;8.00;99.90;;;;;;5112641;28;20255;-81
2020/12/22 03:07:05;;;;;;;13.60;9.07;;;7.90;99.90;;;;;;5111239;28;20216;-83
2020/12/22 03:09:32;;;;;;;13.30;11.73;;;7.90;99.90;;;;;;5111141;28;20237;-81
2020/12/22 03:12:00;;;;;;;13.43;10.20;;;7.90;99.90;;;;;;5076552;28;20716;-81
2020/12/22 03:14:26;;;;;;;11.27;8.60;;;7.80;99.90;;;;;;5111183;28;20389;-81
2020/12/22 03:16:52;;;;;;;16.80;10.20;;;7.80;99.90;;;;;;5110661;28;20162;-83
2020/12/22 03:19:17;;;;;;;11.30;9.80;;;7.80;99.90;;;;;;5111742;28;20189;-82
2020/12/22 03:21:43;;;;;;;12.80;10.73;;;7.90;99.90;;;;;;5110686;28;20226;-81
2020/12/22 03:24:09;;;;;;;11.90;8.63;;;7.90;99.90;;;;;;5110423;28;20203;-83
2020/12/22 03:26:34;;;;;;;13.90;10.10;;;7.90;99.90;;;;;;5110239;28;20198;-81
2020/12/22 03:29:00;;;;;;;12.10;9.10;;;7.90;99.90;;;;;;5111216;28;20166;-81
2020/12/22 03:31:26;;;;;;;13.63;10.00;;;7.90;99.90;;;;;;5092142;28;20258;-82
2020/12/22 03:33:52;;;;;;;16.67;11.10;;;8.00;99.90;;;;;;5110078;28;20170;-83
2020/12/22 03:36:18;;;;;;;11.63;8.30;;;8.00;99.90;;;;;;5110245;28;20174;-81
2020/12/22 03:38:43;;;;;;;12.33;10.93;;;8.00;99.90;;;;;;5110445;28;20193;-81
2020/12/22 03:41:10;;;;;;;13.50;10.03;;;8.00;99.90;;;;;;5109726;28;20538;-81
2020/12/22 03:43:36;;;;;;;13.87;10.80;;;8.00;99.90;;;;;;5092186;28;20177;-81
2020/12/22 03:46:06;;;;;;;14.70;9.27;;;8.10;99.90;;;;;;5074203;28;20419;-81
2020/12/22 03:48:31;;;;;;;11.57;9.60;;;8.10;99.90;;;;;;5109360;28;20163;-81
2020/12/22 03:50:57;;;;;;;14.33;9.60;;;8.20;99.90;;;;;;5109219;28;20422;-81
2020/12/22 03:53:23;;;;;;;12.33;9.67;;;8.20;99.90;;;;;;5109770;28;20167;-82
2020/12/22 03:55:49;;;;;;;12.80;9.63;;;8.20;99.90;;;;;;5110898;28;20293;-82
2020/12/22 03:58:14;;;;;;;15.17;9.23;;;8.20;99.90;;;;;;5111006;28;20166;-81
2020/12/22 04:00:40;;;;;;;10.57;7.90;;;8.20;99.90;;;;;;5110700;28;20194;-82
2020/12/22 04:03:06;;;;;;;9.77;6.57;;;8.30;99.90;;;;;;5109991;28;20166;-82
2020/12/22 04:05:32;;;;;;;10.63;7.17;;;8.40;99.90;;;;;;5109469;28;20158;-81
2020/12/22 04:07:57;;;;;;;9.97;8.27;;;8.40;99.90;;;;;;5108669;28;20223;-81
2020/12/22 04:10:24;;;;;;;9.83;8.40;;;8.40;99.90;;;;;;5108761;28;20571;-81
2020/12/22 04:12:50;;;;;;;9.37;7.33;;;8.40;99.90;;;;;;5073167;28;20197;-82
2020/12/22 04:15:16;;;;;;;7.70;6.03;;;8.50;99.90;;;;;;5108415;28;20393;-81
2020/12/22 04:17:42;;;;;;;12.83;7.30;;;8.60;99.90;;;;;;5108875;28;20163;-81
2020/12/22 04:20:08;;;;;;;11.83;6.53;;;8.50;99.90;;;;;;5108331;28;20316;-82
2020/12/22 04:22:33;;;;;;;9.00;6.40;;;8.60;99.90;;;;;;5110229;28;20234;-82
2020/12/22 04:24:59;;;;;;;8.27;6.57;;;8.70;99.90;;;;;;5109247;28;20169;-82
2020/12/22 04:27:25;;;;;;;7.27;6.43;;;8.80;99.90;;;;;;5109379;28;20651;-82
2020/12/22 04:29:51;;;;;;;6.23;5.27;;;8.90;99.90;;;;;;5109621;28;20187;-81
2020/12/22 04:32:17;;;;;;;5.03;4.53;;;8.90;99.90;;;;;;5109399;28;20599;-82
2020/12/22 04:34:43;;;;;;;7.37;5.40;;;9.00;99.90;;;;;;5074464;28;20179;-81
2020/12/22 04:37:09;;;;;;;8.60;5.77;;;9.00;99.90;;;;;;5110486;28;20433;-82
2020/12/22 04:39:35;;;;;;;6.27;4.80;;;9.00;99.90;;;;;;5111207;28;20167;-82
2020/12/22 04:42:02;;;;;;;3.57;3.00;;;9.10;99.90;;;;;;5111628;28;20167;-83
2020/12/22 04:44:28;;;;;;;3.90;3.37;;;9.20;99.90;;;;;;5112145;28;20173;-82
2020/12/22 04:46:54;;;;;;;5.40;4.30;;;9.40;99.90;;;;;;5109676;28;20536;-83
2020/12/22 04:49:22;;;;;;;6.53;3.47;;;9.40;99.90;;;;;;5112841;28;20401;-83
2020/12/22 04:51:50;;;;;;;3.63;2.80;;;9.60;99.90;;;;;;5112267;28;20378;-83
2020/12/22 04:54:19;;;;;;;2.77;2.57;;;9.80;99.90;;;;;;5112525;28;20375;-83
2020/12/22 04:56:46;;;;;;;4.90;2.70;;;9.80;99.90;;;;;;5110282;28;20402;-81
2020/12/22 04:59:15;;;;;;;3.33;2.67;;;9.80;99.90;;;;;;5088221;28;20397;-81
2020/12/22 05:01:42;;;;;;;2.53;2.33;;;9.80;99.90;;;;;;5106073;28;20398;-82
2020/12/22 05:04:12;;;;;;;2.93;2.37;;;9.80;99.90;;;;;;5106490;28;20899;-81
2020/12/22 05:06:38;;;;;;;3.30;3.00;;;9.80;99.90;;;;;;5106435;28;20443;-81
2020/12/22 05:09:05;;;;;;;3.80;2.70;;;9.70;99.90;;;;;;5106587;28;20403;-81
2020/12/22 05:11:35;;;;;;;5.53;3.57;;;9.70;99.90;;;;;;5107152;28;20379;-81
2020/12/22 05:14:01;;;;;;;3.10;2.90;;;9.60;99.90;;;;;;5106510;28;20390;-81
2020/12/22 05:16:27;;;;;;;3.83;3.53;;;9.60;99.90;;;;;;5106485;28;20902;-81
2020/12/22 05:18:56;;;;;;;3.93;3.20;;;9.50;99.90;;;;;;5106723;28;20375;-82
2020/12/22 05:21:23;;;;;;;4.20;3.17;;;9.50;99.90;;;;;;5106539;28;20479;-81
2020/12/22 05:23:52;;;;;;;4.80;3.27;;;9.50;99.90;;;;;;5107545;28;20534;-82
2020/12/22 05:26:21;;;;;;;3.70;3.00;;;9.50;99.90;;;;;;5106702;28;20440;-82
2020/12/22 05:28:48;;;;;;;4.07;3.10;;;9.50;99.90;;;;;;5088798;28;20785;-82
2020/12/22 05:31:14;;;;;;;6.13;3.70;;;9.50;99.90;;;;;;5089303;28;20376;-82
2020/12/22 05:33:43;;;;;;;3.07;2.83;;;9.50;99.90;;;;;;5107246;28;20371;-82
2020/12/22 05:36:09;;;;;;;5.33;3.60;;;9.50;99.90;;;;;;5106902;28;20708;-81
2020/12/22 05:38:37;;;;;;;7.27;2.93;;;9.50;99.90;;;;;;5107610;28;20395;-81
2020/12/22 05:41:07;;;;;;;3.70;3.03;;;9.60;99.90;;;;;;5107476;28;20522;-81
2020/12/22 05:43:42;;;;;;;2.47;2.27;;;9.70;99.90;;;;;;5106970;28;20368;-81
2020/12/22 05:46:08;;;;;;;2.60;2.30;;;9.60;99.90;;;;;;5108138;28;20448;-81
2020/12/22 05:48:35;;;;;;;2.73;2.43;;;9.60;99.90;;;;;;5107264;28;20373;-81
2020/12/22 05:51:03;;;;;;;3.47;3.17;;;9.60;99.90;;;;;;5107333;28;20366;-81
2020/12/22 05:53:29;;;;;;;3.30;2.60;;;9.60;99.90;;;;;;5107486;28;20362;-81
2020/12/22 05:55:56;;;;;;;3.10;2.63;;;9.70;99.90;;;;;;5107650;28;20382;-81
2020/12/22 05:58:30;;;;;;;4.17;2.63;;;9.80;99.90;;;;;;5107284;28;20753;-82
2020/12/22 06:00:56;;;;;;;2.60;2.40;;;9.80;99.90;;;;;;5106861;28;20371;-81
2020/12/22 06:03:22;;;;;;;2.33;2.13;;;9.80;99.90;;;;;;5107429;28;20517;-82
2020/12/22 06:05:48;;;;;;;2.37;2.17;;;9.70;99.90;;;;;;5107365;28;20170;-82
2020/12/22 06:08:16;;;;;;;2.83;2.63;;;9.70;99.90;;;;;;5107668;28;20368;-81
2020/12/22 06:10:42;;;;;;;2.83;2.27;;;9.70;99.90;;;;;;5107371;28;20232;-82
2020/12/22 06:13:11;;;;;;;3.30;2.10;;;9.70;99.90;;;;;;5107814;28;20885;-82
2020/12/22 06:15:38;;;;;;;2.60;2.40;;;9.70;99.90;;;;;;5113345;28;20767;-82
2020/12/22 06:18:04;;;;;;;2.57;2.37;;;9.70;99.90;;;;;;5094640;28;20400;-81
2020/12/22 06:20:31;;;;;;;3.23;2.53;;;9.70;99.90;;;;;;5112968;28;20482;-82
2020/12/22 06:23:06;;;;;;;2.80;2.60;;;9.60;99.90;;;;;;5112463;28;20404;-82
2020/12/22 06:25:35;;;;;;;6.90;3.07;;;9.60;99.90;;;;;;5113332;28;20377;-82
2020/12/22 06:28:01;;;;;;;2.40;2.20;;;9.60;99.90;;;;;;5114124;28;20385;-82
2020/12/22 06:30:33;;;;;;;2.30;2.10;;;9.80;99.90;;;;;;5113584;28;20364;-82
2020/12/22 06:33:20;;;;;;;3.80;2.40;;;9.70;99.90;;;;;;5113066;28;20359;-82
2020/12/22 06:36:00;;;;;;;2.13;2.03;;;9.90;99.90;;;;;;5104391;28;20405;-82
2020/12/22 06:38:44;;;;;;;2.27;2.00;;;10.00;99.90;;;;;;5093694;28;20805;-82
2020/12/22 06:41:11;;;;;;;2.60;1.70;;;10.10;99.90;;;;;;5100328;28;20435;-82
2020/12/22 06:43:43;;;;;;;2.20;2.00;;;10.10;99.90;;;;;;5098409;28;20423;-82
2020/12/22 06:46:30;;;;;;;1.70;1.60;;;10.20;99.90;;;;;;5094966;28;20560;-82
2020/12/22 06:48:57;;;;;;;1.40;1.30;;;10.30;99.90;;;;;;5088395;28;20476;-82
2020/12/22 06:51:32;;;;;;;2.17;2.07;;;10.40;99.90;;;;;;5100836;28;20889;-82
2020/12/22 06:53:59;;;;;;;1.27;1.17;;;10.40;99.90;;;;;;5115874;28;20496;-82
2020/12/22 06:56:47;;;;;;;1.90;1.80;;;10.70;99.90;;;;;;5116771;28;20376;-82
2020/12/22 06:59:47;;;;;;;1.60;1.50;;;10.70;99.90;;;;;;5118492;28;20391;-82
2020/12/22 07:02:32;;;;;;;1.30;1.20;;;10.60;99.90;;;;;;5107349;28;20392;-81
2020/12/22 07:04:59;;;;;;;1.60;1.50;;;10.80;99.90;;;;;;5069142;28;20404;-82
2020/12/22 07:07:25;;;;;;;1.97;1.30;;;10.70;99.90;;;;;;5092948;28;20424;-82
2020/12/22 07:10:06;;;;;;;1.47;1.37;;;10.80;99.90;;;;;;5108759;28;20478;-82
2020/12/22 07:12:35;;;;;;;1.37;1.20;;;10.90;99.90;;;;;;5110433;28;20412;-82
2020/12/22 07:15:03;;;;;;;1.40;1.30;;;10.70;99.90;;;;;;5099039;28;20413;-82
2020/12/22 07:17:30;;;;;;;1.50;1.40;;;11.00;99.90;;;;;;5105463;28;20457;-82
2020/12/22 07:19:56;;;;;;;1.70;1.40;;;10.90;99.90;;;;;;5108469;28;20440;-81
2020/12/22 07:22:23;;;;;;;1.80;1.70;;;10.90;99.90;;;;;;5104037;28;20384;-82
2020/12/22 07:24:49;;;;;;;1.30;1.20;;;11.00;99.90;;;;;;5089354;28;20185;-81
2020/12/22 07:27:16;;;;;;;2.30;1.73;;;11.00;99.90;;;;;;5089794;28;20416;-81
2020/12/22 07:29:43;;;;;;;1.50;1.40;;;10.90;99.90;;;;;;5091619;28;20427;-82
2020/12/22 07:32:09;;;;;;;2.10;1.70;;;11.10;99.90;;;;;;5081790;28;20413;-82
2020/12/22 07:34:36;;;;;;;1.53;1.43;;;11.10;99.90;;;;;;5127381;28;20430;-83
2020/12/22 07:37:06;;;;;;;1.33;1.20;;;11.10;99.90;;;;;;5127263;28;20400;-82
2020/12/22 07:39:32;;;;;;;1.20;1.10;;;11.10;99.90;;;;;;5110889;28;20432;-82
2020/12/22 07:42:16;;;;;;;1.10;1.00;;;11.20;99.90;;;;;;5114491;28;20717;-82
2020/12/22 07:44:43;;;;;;;1.63;1.53;;;11.10;99.90;;;;;;5125599;28;20433;-82
2020/12/22 07:47:09;;;;;;;1.43;1.33;;;11.20;99.90;;;;;;5107783;28;20456;-82
2020/12/22 07:49:36;;;;;;;1.43;1.33;;;11.00;99.90;;;;;;5083330;28;20395;-82
2020/12/22 07:52:02;;;;;;;1.50;1.40;;;11.30;99.90;;;;;;5097683;28;20435;-83
2020/12/22 07:54:28;;;;;;;4.50;1.10;;;11.20;99.90;;;;;;5093408;28;20428;-84
2020/12/22 07:56:59;;;;;;;1.67;1.50;;;11.20;99.90;;;;;;5094289;28;20415;-79
2020/12/22 07:59:25;;;;;;;1.27;1.17;;;11.20;99.90;;;;;;5073752;28;20384;-83
2020/12/22 08:01:52;;;;;;;1.00;0.90;;;11.30;99.90;;;;;;5096711;28;20391;-83
2020/12/22 08:04:24;;;;;;;1.93;1.20;;;11.20;99.90;;;;;;5098033;28;20440;-82
2020/12/22 08:06:59;;;;;;;0.90;0.90;;;11.30;99.90;;;;;;5072952;28;20464;-81
2020/12/22 08:09:28;;;;;;;3.73;1.00;;;11.50;99.90;;;;;;5073171;28;20432;-82
2020/12/22 08:11:56;;;;;;;0.90;0.90;;;11.50;99.90;;;;;;5094702;28;20428;-80
2020/12/22 08:14:24;;;;;;;1.30;1.10;;;11.50;99.90;;;;;;5091379;28;20433;-80
2020/12/22 08:16:53;;;;;;;1.10;1.00;;;11.50;99.90;;;;;;5089740;28;20396;-81
2020/12/22 08:19:20;;;;;;;1.00;1.00;;;11.40;99.90;;;;;;5094560;28;20838;-81
2020/12/22 08:21:54;;;;;;;1.00;1.00;;;11.50;99.90;;;;;;5096293;28;20445;-82
2020/12/22 08:24:21;;;;;;;1.67;1.10;;;11.50;99.90;;;;;;5097938;28;20485;-84
2020/12/22 08:26:50;;;;;;;1.20;1.10;;;11.50;99.90;;;;;;5101234;28;20491;-83
2020/12/22 08:29:18;;;;;;;1.20;1.10;;;11.50;99.90;;;;;;5080793;28;20403;-83
2020/12/22 08:31:45;;;;;;;1.30;1.20;;;11.50;99.90;;;;;;5063027;28;20910;-81
2020/12/22 08:34:15;;;;;;;1.20;1.10;;;11.40;99.90;;;;;;5101077;28;20787;-82
2020/12/22 08:36:43;;;;;;;1.10;1.00;;;11.30;99.90;;;;;;5099877;28;20441;-82
2020/12/22 08:39:17;;;;;;;0.90;0.90;;;11.40;99.90;;;;;;5093671;28;20455;-83
2020/12/22 08:41:45;;;;;;;1.40;1.20;;;11.60;99.90;;;;;;5097483;28;20411;-82
2020/12/22 08:44:12;;;;;;;1.87;1.00;;;11.70;99.90;;;;;;5076341;28;20412;-83
2020/12/22 08:46:40;;;;;;;1.30;1.20;;;11.70;99.90;;;;;;5108183;28;20430;-83
2020/12/22 08:49:09;;;;;;;1.03;0.97;;;11.70;99.90;;;;;;5086937;28;20727;-83
2020/12/22 08:51:35;;;;;;;1.10;1.00;;;11.70;99.90;;;;;;5104064;28;20418;-83
2020/12/22 08:54:02;;;;;;;1.37;1.27;;;11.70;99.90;;;;;;5104006;28;20496;-83
2020/12/22 08:56:28;;;;;;;7.87;1.10;;;11.80;99.90;;;;;;5103180;28;20163;-82
2020/12/22 08:58:59;;;;;;;1.10;1.00;;;11.80;99.90;;;;;;5095283;28;20481;-83
2020/12/22 09:01:28;;;;;;;1.67;1.57;;;11.70;99.90;;;;;;5106229;28;20425;-82
2020/12/22 09:03:58;;;;;;;1.30;1.20;;;11.80;99.90;;;;;;5107043;28;20910;-83
2020/12/22 09:06:38;;;;;;;1.93;1.30;;;11.80;99.90;;;;;;5089799;28;20478;-82
2020/12/22 09:09:06;;;;;;;1.33;1.23;;;11.80;99.90;;;;;;5054613;28;20404;-83
2020/12/22 09:11:33;;;;;;;1.20;1.10;;;11.90;99.90;;;;;;5086778;28;20437;-83
2020/12/22 09:14:01;;;;;;;1.67;1.00;;;11.80;99.90;;;;;;5096352;28;20438;-83
2020/12/22 09:16:43;;;;;;;1.10;1.00;;;11.80;99.90;;;;;;5087400;28;20430;-83
2020/12/22 09:19:09;;;;;;;1.50;1.20;;;11.70;99.90;;;;;;5097014;28;20432;-83
2020/12/22 09:21:34;;;;;;;1.13;1.03;;;11.70;99.90;;;;;;5085062;28;20562;-82
2020/12/22 09:24:00;;;;;;;1.10;1.00;;;11.80;99.90;;;;;;5095049;28;20534;-81
2020/12/22 09:26:26;;;;;;;2.10;1.13;;;11.80;99.90;;;;;;5098962;28;20670;-81
2020/12/22 09:28:55;;;;;;;2.27;1.03;;;11.80;99.90;;;;;;5071312;28;20171;-81
2020/12/22 09:31:25;;;;;;;1.30;1.20;;;11.80;99.90;;;;;;5094888;28;20597;-79
2020/12/22 09:33:51;;;;;;;1.10;1.00;;;11.80;99.90;;;;;;5094819;28;20404;-82
2020/12/22 09:36:17;;;;;;;1.30;1.17;;;11.70;99.90;;;;;;5089209;28;20472;-83
2020/12/22 09:38:43;;;;;;;0.90;0.90;;;11.80;99.90;;;;;;5051005;28;20206;-80
2020/12/22 09:41:09;;;;;;;2.30;1.47;;;11.90;99.90;;;;;;5098049;28;20265;-81
2020/12/22 09:43:34;;;;;;;1.10;1.00;;;11.80;99.90;;;;;;5085612;28;20281;-81
2020/12/22 09:46:00;;;;;;;0.90;0.90;;;11.80;99.90;;;;;;5102456;28;20480;-82
2020/12/22 09:48:26;;;;;;;1.23;1.13;;;11.90;99.90;;;;;;5096314;28;20189;-81
2020/12/22 09:50:54;;;;;;;1.13;1.03;;;11.80;99.90;;;;;;5101409;28;20178;-81
2020/12/22 09:53:20;;;;;;;1.20;1.03;;;11.80;99.90;;;;;;5098241;28;20650;-81
2020/12/22 09:55:46;;;;;;;1.17;1.10;;;11.80;99.90;;;;;;5097584;28;20437;-79
2020/12/22 09:58:12;;;;;;;1.70;1.60;;;11.90;99.90;;;;;;5081738;28;20174;-78
2020/12/22 10:00:43;;;;;;;1.27;1.17;;;12.00;99.90;;;;;;5054710;28;20717;-80
2020/12/22 10:03:11;;;;;;;1.43;1.23;;;11.90;99.90;;;;;;5082444;28;20179;-79
2020/12/22 10:05:37;;;;;;;1.27;1.17;;;12.00;99.90;;;;;;5104741;28;20410;-79
2020/12/22 10:08:06;;;;;;;1.53;1.30;;;12.00;99.90;;;;;;5102676;28;20449;-80
2020/12/22 10:10:34;;;;;;;1.37;1.27;;;12.00;99.90;;;;;;5061517;28;20443;-80
2020/12/22 10:13:00;;;;;;;1.37;1.27;;;12.00;99.90;;;;;;5089914;28;20384;-79
2020/12/22 10:15:26;;;;;;;1.10;1.00;;;12.10;99.90;;;;;;5093863;28;20224;-80
2020/12/22 10:17:52;;;;;;;1.23;1.13;;;12.10;99.90;;;;;;5091860;28;20298;-81
2020/12/22 10:20:17;;;;;;;1.10;1.00;;;12.00;99.90;;;;;;5108549;28;20230;-80
2020/12/22 10:22:43;;;;;;;1.40;1.30;;;12.00;99.90;;;;;;5074224;28;20159;-79
2020/12/22 10:25:09;;;;;;;1.90;1.33;;;12.10;99.90;;;;;;5074712;28;20191;-79
2020/12/22 10:27:35;;;;;;;1.30;1.07;;;12.10;99.90;;;;;;5088362;28;20214;-79
2020/12/22 10:30:04;;;;;;;1.30;1.20;;;12.10;99.90;;;;;;5066655;28;20218;-79
2020/12/22 10:32:30;;;;;;;1.07;1.00;;;12.30;99.90;;;;;;5061800;28;20210;-80
2020/12/22 10:34:55;;;;;;;2.03;1.00;;;12.30;99.90;;;;;;5074992;28;20407;-80
2020/12/22 10:37:28;;;;;;;1.33;1.23;;;12.30;99.90;;;;;;5069459;28;20179;-79
2020/12/22 10:39:54;;;;;;;2.80;1.20;;;12.30;99.90;;;;;;5074967;28;20205;-80
2020/12/22 10:42:21;;;;;;;2.50;1.20;;;12.40;99.90;;;;;;5090021;28;20489;-81
2020/12/22 10:44:46;;;;;;;1.50;1.17;;;12.50;99.90;;;;;;5098069;28;20194;-80
2020/12/22 10:47:33;;;;;;;1.40;1.10;;;12.50;99.90;;;;;;5097211;28;20515;-81
2020/12/22 10:49:58;;;;;;;1.20;1.10;;;12.50;99.90;;;;;;5043855;28;20414;-81
2020/12/22 10:52:24;;;;;;;1.10;1.00;;;12.40;99.90;;;;;;5051037;28;20571;-80
2020/12/22 10:54:52;;;;;;;3.20;1.40;;;12.40;99.90;;;;;;5026096;28;20192;-82
2020/12/22 10:57:17;;;;;;;1.00;1.00;;;12.40;99.90;;;;;;5049862;28;20438;-81
2020/12/22 10:59:50;;;;;;;4.53;1.10;;;12.40;99.90;;;;;;5052465;28;20513;-78
2020/12/22 11:02:16;;;;;;;1.57;1.27;;;12.40;99.90;;;;;;5034523;28;20279;-83
2020/12/22 11:04:44;;;;;;;1.27;1.17;;;12.40;99.90;;;;;;5062625;28;20462;-82
2020/12/22 11:07:18;;;;;;;1.17;1.07;;;12.40;99.90;;;;;;5040098;28;20282;-82
2020/12/22 11:09:45;;;;;;;1.50;1.40;;;12.40;99.90;;;;;;5060191;28;20413;-82
2020/12/22 11:12:11;;;;;;;1.53;1.37;;;12.50;99.90;;;;;;5064840;28;20429;-80
2020/12/22 11:14:37;;;;;;;1.20;1.10;;;12.50;99.90;;;;;;5050705;28;20521;-80
2020/12/22 11:17:03;;;;;;;1.20;1.10;;;12.50;99.90;;;;;;5054476;28;20188;-81
2020/12/22 11:19:29;;;;;;;4.10;1.20;;;12.50;99.90;;;;;;5060697;28;20562;-80
2020/12/22 11:21:54;;;;;;;2.60;1.20;;;12.50;99.90;;;;;;5095100;28;20214;-82
2020/12/22 11:24:21;;;;;;;1.43;1.33;;;12.50;99.90;;;;;;5091467;28;20434;-81
2020/12/22 11:26:46;;;;;;;1.10;1.00;;;12.50;99.90;;;;;;5070889;28;20294;-81
2020/12/22 11:29:12;;;;;;;1.53;1.43;;;12.50;99.90;;;;;;5104507;28;20414;-83
2020/12/22 11:31:38;;;;;;;1.20;1.10;;;12.50;99.90;;;;;;5097625;28;20186;-82
2020/12/22 11:34:04;;;;;;;1.80;1.60;;;12.60;99.90;;;;;;5108992;28;20178;-82
2020/12/22 11:36:29;;;;;;;2.40;1.50;;;12.60;99.90;;;;;;5091010;28;20426;-82
2020/12/22 11:38:58;;;;;;;1.20;1.10;;;12.60;99.90;;;;;;5101991;28;20200;-83
2020/12/22 11:41:24;;;;;;;1.23;1.13;;;12.50;99.90;;;;;;5103508;28;20411;-81
2020/12/22 11:43:51;;;;;;;1.33;1.23;;;12.60;99.90;;;;;;5099341;28;20198;-82
2020/12/22 11:46:17;;;;;;;1.20;1.10;;;12.50;99.90;;;;;;5093664;28;20488;-82
2020/12/22 11:48:42;;;;;;;1.03;0.93;;;12.50;99.90;;;;;;5096903;28;20449;-82
2020/12/22 11:51:08;;;;;;;1.73;1.63;;;12.50;99.90;;;;;;5102259;28;20700;-82
2020/12/22 11:53:34;;;;;;;1.20;1.10;;;12.50;99.90;;;;;;5110313;28;20170;-83
2020/12/22 11:56:00;;;;;;;1.23;1.13;;;12.50;99.90;;;;;;5111623;28;20194;-82
2020/12/22 11:58:26;;;;;;;1.20;1.10;;;12.50;99.90;;;;;;5104357;28;20434;-80
2020/12/22 12:00:52;;;;;;;1.47;1.37;;;12.50;99.90;;;;;;5104279;28;20821;-81
2020/12/22 12:03:17;;;;;;;1.20;1.10;;;12.40;99.90;;;;;;5105976;28;20258;-81
2020/12/22 12:05:46;;;;;;;1.13;1.03;;;12.40;99.90;;;;;;5096661;28;20197;-82
2020/12/22 12:08:11;;;;;;;1.20;1.10;;;12.40;99.90;;;;;;5091146;28;20179;-82
2020/12/22 12:10:37;;;;;;;1.30;1.10;;;12.40;99.90;;;;;;5100481;28;20410;-81
2020/12/22 12:13:03;;;;;;;1.83;1.50;;;12.50;99.90;;;;;;5086670;28;20639;-81
2020/12/22 12:15:29;;;;;;;2.10;2.00;;;12.60;99.90;;;;;;5099572;28;20183;-80
2020/12/22 12:17:54;;;;;;;3.17;1.40;;;12.60;99.90;;;;;;5101276;28;20611;-80
2020/12/22 12:20:20;;;;;;;1.53;1.43;;;12.60;99.90;;;;;;5064353;28;20273;-81
2020/12/22 12:22:46;;;;;;;1.60;1.50;;;12.50;99.90;;;;;;5092635;28;20256;-82
2020/12/22 12:25:12;;;;;;;1.20;1.10;;;12.70;99.90;;;;;;5087720;28;20563;-82
2020/12/22 12:27:38;;;;;;;1.40;1.30;;;12.60;99.90;;;;;;5113197;28;20293;-81
2020/12/22 12:30:04;;;;;;;1.50;1.30;;;12.50;99.90;;;;;;5097671;28;20253;-80
2020/12/22 12:32:30;;;;;;;1.70;1.27;;;12.60;99.90;;;;;;5078192;28;20590;-79
2020/12/22 12:34:56;;;;;;;1.30;1.20;;;12.50;99.90;;;;;;5089609;28;20405;-82
2020/12/22 12:37:23;;;;;;;1.50;1.37;;;12.60;99.90;;;;;;5089623;28;20392;-81
2020/12/22 12:39:49;;;;;;;1.37;1.27;;;12.60;99.90;;;;;;5089063;28;20861;-82
2020/12/22 12:42:14;;;;;;;1.40;1.30;;;12.60;99.90;;;;;;5100939;28;20461;-84
2020/12/22 12:44:44;;;;;;;1.57;1.20;;;12.70;99.90;;;;;;5108729;28;20402;-85
2020/12/22 12:47:17;;;;;;;1.30;1.20;;;12.60;99.90;;;;;;5043315;28;20241;-79
2020/12/22 12:49:43;;;;;;;1.30;1.20;;;12.60;99.90;;;;;;5033631;28;20404;-80